Time;durP1;ratioP1;P1;durP2;ratioP2;P2;SDS_P1;SDS_P2;PMS_P1;PMS_P2;Temp;Humidity;BMP_temperature;BMP_pressure;BME280_temperature;BME280_humidity;BME280_pressure;Samples;Min_cycle;Max_cycle;Signal;HPM_P1;HPM_P2
2022/10/14 00:02:26;;;;;;;;;;;;;;;12.81;100.00;99433.66;8309473;28;19933;-75
2022/10/14 00:06:30;;;;;;;;;;;;;;;12.83;100.00;99440.56;8315746;28;19982;-75
2022/10/14 00:10:35;;;;;;;;;;;;;;;12.84;100.00;99437.06;8297504;28;20369;-75
2022/10/14 00:14:36;;;;;;;;;;;;;;;12.85;100.00;99433.59;8314218;28;20690;-75
2022/10/14 00:18:38;;;;;;;;;;;;;;;12.85;100.00;99427.50;8275880;28;19987;-75
2022/10/14 00:22:39;;;;;;;;;;;;;;;12.85;100.00;99420.56;8299988;28;20421;-75
2022/10/14 00:26:41;;;;;;;;;;;;;;;12.86;100.00;99429.22;8317019;28;19929;-75
2022/10/14 00:30:51;;;;;;;;;;;;;;;12.85;100.00;99425.75;8311114;28;19995;-75
2022/10/14 00:34:52;;;;;;;;;;;;;;;12.84;100.00;99424.03;8295587;28;19933;-75
2022/10/14 00:38:54;;;;;;;;;;;;;;;12.85;100.00;99425.75;8299924;28;19963;-75
2022/10/14 00:42:55;;;;;;;;;;;;;;;12.82;100.00;99428.41;8295554;28;19929;-75
2022/10/14 00:46:57;;;;;;;;;;;;;;;12.83;100.00;99424.94;8303746;28;19940;-75
2022/10/14 00:50:58;;;;;;;;;;;;;;;12.82;100.00;99431.03;8300212;28;19936;-75
2022/10/14 00:55:02;;;;;;;;;;;;;;;12.79;100.00;99425.00;8285503;28;20627;-75
2022/10/14 00:59:04;;;;;;;;;;;;;;;12.79;100.00;99425.00;8294977;28;19933;-75
2022/10/14 01:03:16;;;;;;;;;;;;;;;12.80;100.00;99429.31;8292073;28;19933;-75
2022/10/14 01:07:18;;;;;;;;;;;;;;;12.81;100.00;99423.22;8309384;28;19929;-75
2022/10/14 01:11:32;;;;;;;;;;;;;;;12.83;100.00;99424.06;8313956;28;20466;-75
2022/10/14 01:15:37;;;;;;;;;;;;;;;12.84;100.00;99420.56;8290877;28;19933;-75
2022/10/14 01:19:52;;;;;;;;;;;;;;;12.86;100.00;99413.59;8300589;28;19933;-75
2022/10/14 01:23:54;;;;;;;;;;;;;;;12.86;100.00;99411.84;8309589;28;19995;-75
2022/10/14 01:28:14;;;;;;;;;;;;;;;12.86;100.00;99409.25;8305290;28;20156;-75
2022/10/14 01:32:20;;;;;;;;;;;;;;;12.87;100.00;99408.34;8284042;28;19925;-75
2022/10/14 01:36:36;;;;;;;;;;;;;;;12.90;100.00;99400.50;8310900;28;19929;-75
2022/10/14 01:40:40;;;;;;;;;;;;;;;12.92;100.00;99400.47;8312866;28;19937;-75
2022/10/14 01:44:44;;;;;;;;;;;;;;;12.92;100.00;99392.66;8286196;28;20460;-75
2022/10/14 01:48:52;;;;;;;;;;;;;;;12.92;100.00;99382.22;8309626;28;19937;-75
2022/10/14 01:52:57;;;;;;;;;;;;;;;12.92;100.00;99377.88;8314243;28;20389;-75
2022/10/14 01:57:01;;;;;;;;;;;;;;;12.92;100.00;99362.25;8312996;28;19930;-75
2022/10/14 02:01:07;;;;;;;;;;;;;;;12.92;100.00;99362.25;8306551;28;19928;-75
2022/10/14 02:05:19;;;;;;;;;;;;;;;12.94;100.00;99359.63;8314194;28;19930;-74
2022/10/14 02:09:23;;;;;;;;;;;;;;;12.93;100.00;99357.91;8320895;28;19928;-75
2022/10/14 02:13:31;;;;;;;;;;;;;;;12.94;100.00;99350.06;8304428;28;19933;-76
2022/10/14 02:17:36;;;;;;;;;;;;;;;12.97;100.00;99338.75;8309165;28;19960;-76
2022/10/14 02:21:50;;;;;;;;;;;;;;;12.97;100.00;99320.50;8309569;28;19930;-76
2022/10/14 02:25:53;;;;;;;;;;;;;;;12.97;100.00;99318.75;8315276;28;20011;-76
2022/10/14 02:29:56;;;;;;;;;;;;;;;12.99;100.00;99306.56;8296655;28;19987;-76
2022/10/14 02:33:59;;;;;;;;;;;;;;;12.99;100.00;99300.47;8293848;28;19933;-76
2022/10/14 02:38:01;;;;;;;;;;;;;;;12.98;100.00;99297.00;8305530;28;19943;-76
2022/10/14 02:42:02;;;;;;;;;;;;;;;12.98;100.00;99289.19;8325137;28;19992;-76
2022/10/14 02:46:04;;;;;;;;;;;;;;;12.97;100.00;99297.03;8300995;28;20350;-76
2022/10/14 02:50:05;;;;;;;;;;;;;;;12.97;100.00;99290.09;8307183;28;20364;-76
2022/10/14 02:54:07;;;;;;;;;;;;;;;12.97;100.00;99284.88;8305229;28;19929;-76
2022/10/14 02:58:08;;;;;;;;;;;;;;;12.95;100.00;99289.25;8322838;28;20676;-76
2022/10/14 03:02:09;;;;;;;;;;;;;;;12.94;100.00;99287.53;8301241;28;19940;-76
2022/10/14 03:06:11;;;;;;;;;;;;;;;12.97;100.00;99286.63;8319598;28;19929;-76
2022/10/14 03:10:12;;;;;;;;;;;;;;;13.00;100.00;99286.56;8318178;28;20004;-75
2022/10/14 03:14:14;;;;;;;;;;;;;;;12.99;100.00;99279.63;8316980;28;19990;-76
2022/10/14 03:18:16;;;;;;;;;;;;;;;12.99;100.00;99284.84;8312738;28;19983;-76
2022/10/14 03:22:17;;;;;;;;;;;;;;;12.99;100.00;99274.41;8330564;28;20717;-76
2022/10/14 03:26:19;;;;;;;;;;;;;;;13.00;100.00;99276.13;8303967;28;20301;-76
2022/10/14 03:30:20;;;;;;;;;;;;;;;13.00;100.00;99279.59;8283336;28;20613;-75
2022/10/14 03:34:22;;;;;;;;;;;;;;;13.01;100.00;99277.84;8301420;28;20591;-75
2022/10/14 03:38:23;;;;;;;;;;;;;;;13.01;100.00;99267.44;8302144;28;20324;-75
2022/10/14 03:42:24;;;;;;;;;;;;;;;13.01;100.00;99270.91;8298733;28;19929;-75
2022/10/14 03:46:25;;;;;;;;;;;;;;;13.02;100.00;99256.97;8295347;28;19933;-75
2022/10/14 03:50:27;;;;;;;;;;;;;;;13.02;100.00;99249.16;8292317;28;19929;-76
2022/10/14 03:54:28;;;;;;;;;;;;;;;13.03;100.00;99244.81;8304595;28;19925;-75
2022/10/14 03:58:30;;;;;;;;;;;;;;;13.04;100.00;99238.69;8287900;28;20435;-75
2022/10/14 04:02:31;;;;;;;;;;;;;;;13.04;100.00;99232.63;8310271;28;20366;-75
2022/10/14 04:06:32;;;;;;;;;;;;;;;13.03;100.00;99229.16;8316452;28;19932;-75
2022/10/14 04:10:34;;;;;;;;;;;;;;;12.99;100.00;99224.91;8318093;28;19933;-75
2022/10/14 04:14:35;;;;;;;;;;;;;;;12.99;100.00;99217.94;8317209;28;20417;-75
2022/10/14 04:18:36;;;;;;;;;;;;;;;12.98;100.00;99208.41;8308971;28;19961;-75
2022/10/14 04:22:38;;;;;;;;;;;;;;;12.98;100.00;99200.59;8314863;28;19937;-75
2022/10/14 04:26:39;;;;;;;;;;;;;;;12.98;100.00;99200.59;8315734;28;19933;-75
2022/10/14 04:30:41;;;;;;;;;;;;;;;12.99;100.00;99193.63;8312351;28;20341;-75
2022/10/14 04:34:42;;;;;;;;;;;;;;;13.00;100.00;99185.78;8318013;28;19929;-75
2022/10/14 04:38:43;;;;;;;;;;;;;;;13.00;100.00;99187.53;8316489;28;20406;-75
2022/10/14 04:42:45;;;;;;;;;;;;;;;12.98;100.00;99181.47;8323404;28;20681;-75
2022/10/14 04:46:46;;;;;;;;;;;;;;;12.97;100.00;99187.56;8313841;28;19929;-75
2022/10/14 04:50:51;;;;;;;;;;;;;;;12.96;100.00;99181.50;8297554;28;19998;-75
2022/10/14 04:54:52;;;;;;;;;;;;;;;12.96;100.00;99183.25;8314366;28;19995;-75
2022/10/14 04:58:54;;;;;;;;;;;;;;;12.99;100.00;99185.81;8310242;28;19929;-75
2022/10/14 05:02:55;;;;;;;;;;;;;;;13.01;100.00;99187.50;8311449;28;19983;-76
2022/10/14 05:06:57;;;;;;;;;;;;;;;13.03;100.00;99184.84;8314714;28;19929;-76
2022/10/14 05:10:59;;;;;;;;;;;;;;;13.05;100.00;99184.81;8314717;28;19929;-76
2022/10/14 05:15:00;;;;;;;;;;;;;;;13.06;100.00;99183.94;8315380;28;19939;-76
2022/10/14 05:19:01;;;;;;;;;;;;;;;13.06;100.00;99182.19;8281953;28;20708;-76
2022/10/14 05:23:03;;;;;;;;;;;;;;;13.09;100.00;99176.06;8305241;28;19929;-76
2022/10/14 05:27:05;;;;;;;;;;;;;;;13.10;100.00;99176.03;8307644;28;19929;-76
2022/10/14 05:31:06;;;;;;;;;;;;;;;13.11;100.00;99156.91;8276267;28;19987;-76
2022/10/14 05:35:08;;;;;;;;;;;;;;;13.10;100.00;99157.78;8292660;28;19928;-76
2022/10/14 05:39:10;;;;;;;;;;;;;;;13.11;100.00;99158.66;8313053;28;19933;-76
2022/10/14 05:43:12;;;;;;;;;;;;;;;13.15;100.00;99152.50;8311631;28;19932;-76
2022/10/14 05:47:14;;;;;;;;;;;;;;;13.16;100.00;99155.06;8286362;28;19929;-76
2022/10/14 05:51:19;;;;;;;;;;;;;;;13.15;100.00;99145.53;8311522;28;20188;-76
2022/10/14 05:55:21;;;;;;;;;;;;;;;13.17;100.00;99148.13;8311239;28;19936;-76
2022/10/14 05:59:22;;;;;;;;;;;;;;;13.16;100.00;99142.03;8305007;28;19933;-76
2022/10/14 06:03:24;;;;;;;;;;;;;;;13.18;100.00;99147.25;8306856;28;20044;-76
2022/10/14 06:07:26;;;;;;;;;;;;;;;13.19;100.00;99136.78;8312059;28;20028;-75
2022/10/14 06:11:27;;;;;;;;;;;;;;;13.20;100.00;99138.50;8298195;28;20277;-75
2022/10/14 06:15:29;;;;;;;;;;;;;;;13.23;100.00;99135.84;8312415;28;19991;-75
2022/10/14 06:19:32;;;;;;;;;;;;;;;13.25;100.00;99136.66;8305384;28;19972;-75
2022/10/14 06:23:33;;;;;;;;;;;;;;;13.27;100.00;99141.84;8310014;28;20433;-75
2022/10/14 06:27:35;;;;;;;;;;;;;;;13.28;100.00;99136.63;8289468;28;19940;-75
2022/10/14 06:31:36;;;;;;;;;;;;;;;13.32;100.00;99128.75;8305262;28;20594;-75
2022/10/14 06:35:38;;;;;;;;;;;;;;;13.36;100.00;99125.19;8279007;28;19934;-73
2022/10/14 06:39:40;;;;;;;;;;;;;;;13.40;100.00;99129.44;8282475;28;19929;-72
2022/10/14 06:43:42;;;;;;;;;;;;;;;13.43;100.00;99121.56;8299574;28;19968;-72
2022/10/14 06:47:43;;;;;;;;;;;;;;;13.45;100.00;99117.16;8266994;28;19936;-75
2022/10/14 06:51:44;;;;;;;;;;;;;;;13.46;100.00;99111.91;8296944;28;19934;-75
2022/10/14 06:55:46;;;;;;;;;;;;;;;13.48;100.00;99104.09;8269715;28;19933;-73
2022/10/14 06:59:47;;;;;;;;;;;;;;;13.49;100.00;99105.78;8271310;28;19995;-76
2022/10/14 07:03:49;;;;;;;;;;;;;;;13.53;100.00;99105.69;8276912;28;19929;-75
2022/10/14 07:07:57;;;;;;;;;;;;;;;13.58;100.00;99102.97;8264830;28;19933;-75
2022/10/14 07:11:58;;;;;;;;;;;;;;;13.61;100.00;99101.16;8266334;28;21073;-75
2022/10/14 07:16:00;;;;;;;;;;;;;;;13.64;100.00;99101.97;8287108;28;20614;-75
2022/10/14 07:20:02;;;;;;;;;;;;;;;13.64;100.00;99100.22;8276712;28;20588;-74
2022/10/14 07:24:03;;;;;;;;;;;;;;;13.65;100.00;99114.16;8280870;28;19931;-74
2022/10/14 07:28:05;;;;;;;;;;;;;;;13.67;100.00;99112.38;8275691;28;19992;-74
2022/10/14 07:32:06;;;;;;;;;;;;;;;13.65;100.00;99107.19;8283541;28;19965;-75
2022/10/14 07:36:12;;;;;;;;;;;;;;;13.69;100.00;99113.19;8300514;28;19929;-74
2022/10/14 07:40:17;;;;;;;;;;;;;;;13.74;100.00;99116.56;8300134;28;19929;-74
2022/10/14 07:44:19;;;;;;;;;;;;;;;13.81;100.00;99120.75;8302474;28;19959;-74
2022/10/14 07:48:30;;;;;;;;;;;;;;;13.84;100.00;99120.69;8312023;28;19933;-75
2022/10/14 07:52:52;;;;;;;;;;;;;;;13.84;100.00;99118.09;8311015;28;19933;-75
2022/10/14 07:56:59;;;;;;;;;;;;;;;13.87;100.00;99116.25;8306122;28;19940;-76
2022/10/14 08:01:00;;;;;;;;;;;;;;;13.87;100.00;99121.47;8296030;28;20077;-75
2022/10/14 08:05:02;;;;;;;;;;;;;;;13.90;100.00;99110.13;8314817;28;19929;-75
2022/10/14 08:09:23;;;;;;;;;;;;;;;13.95;100.00;99115.22;8314536;28;19940;-75
2022/10/14 08:13:25;;;;;;;;;;;;;;;13.97;100.00;99111.69;8314876;28;19929;-75
2022/10/14 08:17:26;;;;;;;;;;;;;;;14.00;100.00;99109.00;8298580;28;19999;-75
2022/10/14 08:21:27;;;;;;;;;;;;;;;14.03;100.00;99113.31;8314801;28;19929;-75
2022/10/14 08:25:29;;;;;;;;;;;;;;;14.05;100.00;99108.91;8309554;28;19991;-75
2022/10/14 08:29:30;;;;;;;;;;;;;;;14.07;100.00;99107.13;8313652;28;19987;-76
2022/10/14 08:33:32;;;;;;;;;;;;;;;14.09;100.00;99116.63;8275507;28;20273;-75
2022/10/14 08:37:33;;;;;;;;;;;;;;;14.12;100.00;99108.72;8307827;28;19929;-76
2022/10/14 08:41:35;;;;;;;;;;;;;;;14.13;100.00;99104.34;8317743;28;19929;-75
2022/10/14 08:45:41;;;;;;;;;;;;;;;14.16;100.00;99104.28;8290465;28;19929;-75
2022/10/14 08:49:57;;;;;;;;;;;;;;;14.20;100.00;99103.34;8316042;28;19995;-75
2022/10/14 08:54:05;;;;;;;;;;;;;;;14.26;100.00;99099.72;8301456;28;19929;-75
2022/10/14 08:58:17;;;;;;;;;;;;;;;14.28;100.00;99106.63;8298018;28;19956;-74
2022/10/14 09:02:42;;;;;;;;;;;;;;;14.29;100.00;99094.41;8297101;28;19929;-74
2022/10/14 09:06:45;;;;;;;;;;;;;;;14.32;100.00;99097.81;8300646;28;20521;-74
2022/10/14 09:10:47;;;;;;;;;;;;;;;14.35;100.00;99099.47;8300530;28;20578;-75
2022/10/14 09:14:58;;;;;;;;;;;;;;;14.35;100.00;99086.41;8301497;28;19959;-74
2022/10/14 09:19:01;;;;;;;;;;;;;;;14.35;100.00;99084.66;8305330;28;19939;-75
2022/10/14 09:23:14;;;;;;;;;;;;;;;14.39;100.00;99086.31;8309019;28;19928;-75
2022/10/14 09:27:22;;;;;;;;;;;;;;;14.43;100.00;99087.09;8314120;28;20015;-75
2022/10/14 09:31:25;;;;;;;;;;;;;;;14.45;100.00;99087.94;8300601;28;20550;-75
2022/10/14 09:35:31;;;;;;;;;;;;;;;14.49;100.00;99081.75;8312055;28;19932;-75
2022/10/14 09:39:36;;;;;;;;;;;;;;;14.55;100.00;99080.75;8325686;28;19936;-75
2022/10/14 09:43:40;;;;;;;;;;;;;;;14.59;100.00;99085.84;8340269;28;20313;-75
2022/10/14 09:47:58;;;;;;;;;;;;;;;14.59;100.00;99082.38;8345450;28;19998;-75
2022/10/14 09:52:01;;;;;;;;;;;;;;;14.59;100.00;99066.72;8342720;28;20302;-75
2022/10/14 09:56:04;;;;;;;;;;;;;;;14.64;100.00;99067.44;8323113;28;19929;-75
2022/10/14 10:00:06;;;;;;;;;;;;;;;14.68;100.00;99066.44;8326282;28;20358;-75
2022/10/14 10:04:23;;;;;;;;;;;;;;;14.67;100.00;99052.53;8320633;28;19990;-75
2022/10/14 10:08:25;;;;;;;;;;;;;;;14.69;100.00;99050.72;8345889;28;19929;-75
2022/10/14 10:12:31;;;;;;;;;;;;;;;14.70;100.00;99046.34;8339231;28;19933;-75
2022/10/14 10:16:33;;;;;;;;;;;;;;;14.71;100.00;99043.69;8334447;28;20471;-76
2022/10/14 10:20:35;;;;;;;;;;;;;;;14.69;100.00;99040.28;8316702;28;20027;-76
2022/10/14 10:24:36;;;;;;;;;;;;;;;14.72;100.00;99035.00;8303707;28;19941;-76
2022/10/14 10:28:44;;;;;;;;;;;;;;;14.72;100.00;99041.94;8325323;28;20404;-76
2022/10/14 10:32:51;;;;;;;;;;;;;;;14.73;100.00;99034.09;8309055;28;20504;-76
2022/10/14 10:36:56;;;;;;;;;;;;;;;14.73;100.00;99041.06;8326951;28;19932;-76
2022/10/14 10:41:03;;;;;;;;;;;;;;;14.74;100.00;99030.59;8328469;28;20376;-76
2022/10/14 10:45:32;;;;;;;;;;;;;;;14.77;100.00;99029.63;8336367;28;20396;-75
2022/10/14 10:49:37;;;;;;;;;;;;;;;14.81;100.00;99018.19;8356071;28;19928;-75
2022/10/14 10:53:48;;;;;;;;;;;;;;;14.85;100.00;99030.28;8361645;28;19990;-75
2022/10/14 10:57:51;;;;;;;;;;;;;;;14.89;100.00;99028.41;8370004;28;19989;-75
2022/10/14 11:02:11;;;;;;;;;;;;;;;14.89;100.00;99016.22;8380107;28;19928;-75
2022/10/14 11:06:12;;;;;;;;;;;;;;;14.93;100.00;99017.00;8381389;28;19993;-75
2022/10/14 11:14:53;;;;;;;;;;;;;;;14.94;100.00;99021.34;8385993;28;19928;-75
2022/10/14 11:19:07;;;;;;;;;;;;;;;14.93;100.00;99006.53;8384865;28;19963;-76
2022/10/14 11:23:17;;;;;;;;;;;;;;;14.91;100.00;99005.75;8380647;28;19989;-76
2022/10/14 11:27:26;;;;;;;;;;;;;;;14.88;100.00;98997.94;8369702;28;20779;-75
2022/10/14 11:31:46;;;;;;;;;;;;;;;14.91;100.00;98990.06;8382850;28;20432;-76
2022/10/14 11:36:04;;;;;;;;;;;;;;;14.93;100.00;98986.50;8329922;28;20282;-76
2022/10/14 11:40:14;;;;;;;;;;;;;;;14.94;100.00;98987.34;8327843;28;19936;-76
2022/10/14 11:44:25;;;;;;;;;;;;;;;14.93;100.00;98983.88;8333527;28;20408;-76
2022/10/14 11:48:26;;;;;;;;;;;;;;;14.93;100.00;98988.25;8351659;28;20358;-76
2022/10/14 11:52:31;;;;;;;;;;;;;;;14.99;100.00;98988.06;8330918;28;20269;-76
2022/10/14 11:56:32;;;;;;;;;;;;;;;15.06;100.00;98989.59;8786780;22;19929;-75
2022/10/14 12:00:53;;;;;;;;;;;;;;;15.08;100.00;98991.28;8300719;28;19936;-75
2022/10/14 12:04:58;;;;;;;;;;;;;;;15.10;100.00;98994.69;8898139;22;20516;-76
2022/10/14 12:09:08;;;;;;;;;;;;;;;15.13;100.00;98993.75;8272710;28;19937;-76
2022/10/14 12:13:12;;;;;;;;;;;;;;;15.15;100.00;99004.16;8274588;28;20263;-76
2022/10/14 12:17:22;;;;;;;;;;;;;;;15.18;100.00;99004.94;8274573;28;20321;-76
2022/10/14 12:21:39;;;;;;;;;;;;;;;15.20;100.00;99007.50;8280664;28;19930;-75
2022/10/14 12:25:53;;;;;;;;;;;;;;;15.22;100.00;99014.41;8244189;28;19980;-75
2022/10/14 12:29:57;;;;;;;;;;;;;;;15.28;100.00;99002.91;8278788;28;19933;-75
2022/10/14 12:34:10;;;;;;;;;;;;;;;15.35;100.00;98997.44;8279742;28;19936;-75
2022/10/14 12:38:12;;;;;;;;;;;;;;;15.39;100.00;98995.59;8278788;28;19929;-75
2022/10/14 12:42:15;;;;;;;;;;;;;;;15.42;100.00;98992.88;8282494;28;19929;-75
2022/10/14 12:46:17;;;;;;;;;;;;;;;15.52;100.00;98977.75;8274570;28;20286;-75
2022/10/14 12:50:18;;;;;;;;;;;;;;;15.63;100.00;98970.47;8280634;28;19988;-76
2022/10/14 12:54:20;;;;;;;;;;;;;;;15.79;100.00;98960.34;8297809;28;19940;-75
2022/10/14 12:58:25;;;;;;;;;;;;;;;16.03;100.00;98949.06;8278891;28;19930;-75
2022/10/14 13:02:31;;;;;;;;;;;;;;;16.23;100.00;98945.78;8274828;28;19929;-75
2022/10/14 13:06:39;;;;;;;;;;;;;;;16.39;100.00;98933.00;8279607;28;19964;-75
2022/10/14 13:10:43;;;;;;;;;;;;;;;16.43;100.00;98938.06;8275819;28;19941;-75
2022/10/14 13:14:53;;;;;;;;;;;;;;;16.37;100.00;98930.44;8277368;28;19937;-75
2022/10/14 13:18:58;;;;;;;;;;;;;;;16.37;100.00;98917.34;8277702;28;20389;-75
2022/10/14 13:23:18;;;;;;;;;;;;;;;16.32;100.00;98922.72;8275065;28;19940;-75
2022/10/14 13:27:38;;;;;;;;;;;;;;;16.35;100.00;98926.16;8272750;28;19929;-75
2022/10/14 13:31:47;;;;;;;;;;;;;;;16.43;100.00;98911.88;8278593;28;19929;-75
2022/10/14 13:35:57;;;;;;;;;;;;;;;16.53;100.00;98899.31;8309203;28;20399;-75
2022/10/14 13:40:11;;;;;;;;;;;;;;;16.48;100.00;98919.56;8312396;28;20273;-75
2022/10/14 13:44:12;;;;;;;;;;;;;;;16.51;100.00;98915.06;8301340;28;20346;-75
2022/10/14 13:48:20;;;;;;;;;;;;;;;16.59;100.00;98914.78;8308285;28;19929;-75
2022/10/14 13:52:25;;;;;;;;;;;;;;;16.73;100.00;98914.31;8312701;28;20350;-75
2022/10/14 13:56:28;;;;;;;;;;;;;;;16.82;100.00;98925.31;8293444;28;19972;-75
2022/10/14 14:00:35;;;;;;;;;;;;;;;16.91;100.00;98919.75;8306100;28;19964;-75
2022/10/14 14:04:46;;;;;;;;;;;;;;;16.96;100.00;98919.56;8285949;28;19929;-75
2022/10/14 14:08:53;;;;;;;;;;;;;;;16.92;100.00;98907.47;8285985;28;19934;-75
2022/10/14 14:12:55;;;;;;;;;;;;;;;16.81;99.29;98914.88;8285155;28;19932;-75
2022/10/14 14:17:00;;;;;;;;;;;;;;;16.72;99.41;98913.47;8290472;28;20384;-75
2022/10/14 14:21:02;;;;;;;;;;;;;;;16.69;99.92;98894.34;8240536;28;19957;-75
2022/10/14 14:25:10;;;;;;;;;;;;;;;16.65;100.00;98893.59;8266942;28;20776;-75
2022/10/14 14:29:32;;;;;;;;;;;;;;;16.62;100.00;98889.31;8277787;28;19930;-75
2022/10/14 14:33:34;;;;;;;;;;;;;;;16.62;100.00;98886.69;8329290;28;19925;-76
2022/10/14 14:37:36;;;;;;;;;;;;;;;16.62;100.00;98884.06;8335379;28;19929;-76
2022/10/14 14:41:58;;;;;;;;;;;;;;;16.61;100.00;98887.59;8310338;28;20353;-75
2022/10/14 14:46:00;;;;;;;;;;;;;;;16.57;100.00;98883.41;8314885;28;19929;-75
2022/10/14 14:50:02;;;;;;;;;;;;;;;16.53;100.00;98884.44;8341344;28;19929;-75
2022/10/14 14:54:48;;;;;;;;;;;;;;;16.46;100.00;98884.69;8331571;28;19939;-75
2022/10/14 14:59:31;;;;;;;;;;;;;;;16.42;100.00;98883.09;8327015;28;19960;-75
2022/10/14 15:03:48;;;;;;;;;;;;;;;16.33;100.00;98885.13;8318722;28;19929;-74
2022/10/14 15:08:23;;;;;;;;;;;;;;;16.23;100.00;98880.28;8333303;28;20413;-74
2022/10/14 15:12:27;;;;;;;;;;;;;;;16.17;100.00;98886.59;8336907;28;19959;-75
2022/10/14 15:16:32;;;;;;;;;;;;;;;16.08;100.00;98870.34;8319429;28;19991;-75
2022/10/14 15:20:35;;;;;;;;;;;;;;;16.02;100.00;98872.28;8316539;28;19929;-76
2022/10/14 15:24:55;;;;;;;;;;;;;;;15.97;100.00;98868.09;8323985;28;19929;-76
2022/10/14 15:29:08;;;;;;;;;;;;;;;15.93;100.00;98853.41;8318352;28;19928;-76
2022/10/14 15:33:14;;;;;;;;;;;;;;;15.85;100.00;98861.53;8319917;28;19940;-76
2022/10/14 15:37:16;;;;;;;;;;;;;;;15.80;100.00;98866.06;8334009;28;19941;-76
2022/10/14 15:41:17;;;;;;;;;;;;;;;15.78;100.00;98861.78;8322637;28;19983;-76
2022/10/14 15:45:19;;;;;;;;;;;;;;;15.72;100.00;98841.91;8328816;28;19933;-76
2022/10/14 15:49:31;;;;;;;;;;;;;;;15.66;100.00;98831.66;8335307;28;19928;-76
2022/10/14 15:53:33;;;;;;;;;;;;;;;15.59;100.00;98825.75;8317535;28;19933;-76
2022/10/14 15:57:38;;;;;;;;;;;;;;;15.54;100.00;98825.03;8349259;28;19933;-76
2022/10/14 16:01:41;;;;;;;;;;;;;;;15.51;100.00;98824.28;8337831;28;19933;-76
2022/10/14 16:05:42;;;;;;;;;;;;;;;15.45;100.00;98827.97;8343104;28;19929;-76
2022/10/14 16:09:44;;;;;;;;;;;;;;;15.41;100.00;98818.47;8329145;28;19936;-76
2022/10/14 16:13:45;;;;;;;;;;;;;;;15.35;100.00;98809.09;8325617;28;19990;-76
2022/10/14 16:17:47;;;;;;;;;;;;;;;15.27;100.00;98805.88;8334720;28;19929;-76
2022/10/14 16:21:54;;;;;;;;;;;;;;;15.22;100.00;98807.75;8339455;28;19929;-76
2022/10/14 16:25:56;;;;;;;;;;;;;;;15.15;100.00;98824.56;8332444;28;20002;-77
2022/10/14 16:30:02;;;;;;;;;;;;;;;15.04;100.00;98816.19;8343848;28;20274;-76
2022/10/14 16:34:09;;;;;;;;;;;;;;;14.95;100.00;98813.91;8337082;28;19939;-76
2022/10/14 16:38:12;;;;;;;;;;;;;;;14.86;100.00;98807.19;8339525;28;20546;-75
2022/10/14 16:42:17;;;;;;;;;;;;;;;14.76;100.00;98805.78;8323656;28;19932;-76
2022/10/14 16:47:14;;;;;;;;;;;;;;;14.71;100.00;98811.13;8315225;28;20436;-76
2022/10/14 16:50:49;;;;;;;;;;;;;;;14.66;100.00;98801.72;8337355;28;19937;-75
2022/10/14 16:54:51;;;;;;;;;;;;;;;14.58;100.00;98793.25;8322372;28;19936;-76
2022/10/14 16:58:55;;;;;;;;;;;;;;;14.50;100.00;98799.56;8305853;28;19959;-75
2022/10/14 17:02:56;;;;;;;;;;;;;;;14.44;100.00;98802.34;8330802;28;19929;-75
2022/10/14 17:07:01;;;;;;;;;;;;;;;14.40;100.00;98799.84;8337416;28;20302;-75
2022/10/14 17:11:02;;;;;;;;;;;;;;;14.37;100.00;98807.78;8335726;28;19929;-74
2022/10/14 17:15:04;;;;;;;;;;;;;;;14.35;100.00;98799.13;8331188;28;19933;-75
2022/10/14 17:19:05;;;;;;;;;;;;;;;14.31;100.00;98795.75;8336803;28;20334;-75
2022/10/14 17:23:08;;;;;;;;;;;;;;;14.28;100.00;98790.63;8318488;28;20445;-76
2022/10/14 17:27:11;;;;;;;;;;;;;;;14.28;100.00;98785.38;8332614;28;19994;-76
2022/10/14 17:31:13;;;;;;;;;;;;;;;14.29;100.00;98787.09;8332115;28;19929;-76
2022/10/14 17:35:14;;;;;;;;;;;;;;;14.27;100.00;98782.81;8330779;28;19933;-75
2022/10/14 17:39:18;;;;;;;;;;;;;;;14.26;100.00;98779.34;8345460;28;20019;-75
2022/10/14 17:43:29;;;;;;;;;;;;;;;14.23;100.00;98774.22;8330888;28;19932;-75
2022/10/14 17:47:30;;;;;;;;;;;;;;;14.23;100.00;98768.16;8322211;28;20022;-75
2022/10/14 17:51:32;;;;;;;;;;;;;;;14.21;100.00;98768.19;8327460;28;19933;-75
2022/10/14 17:55:37;;;;;;;;;;;;;;;14.19;100.00;98762.16;8342146;28;20026;-75
2022/10/14 17:59:39;;;;;;;;;;;;;;;14.17;100.00;98762.19;8328565;28;20615;-75
2022/10/14 18:03:43;;;;;;;;;;;;;;;14.16;100.00;98767.44;8344809;28;19929;-75
2022/10/14 18:07:46;;;;;;;;;;;;;;;14.15;100.00;98758.78;8329485;28;20738;-75
2022/10/14 18:11:49;;;;;;;;;;;;;;;14.15;100.00;98755.31;8342746;28;19932;-76
2022/10/14 18:16:12;;;;;;;;;;;;;;;14.15;100.00;98747.47;8332642;28;19998;-75
2022/10/14 18:20:13;;;;;;;;;;;;;;;14.15;100.00;98747.47;8310650;28;19929;-75
2022/10/14 18:24:14;;;;;;;;;;;;;;;14.15;100.00;98747.47;8336509;28;20320;-75
2022/10/14 18:28:16;;;;;;;;;;;;;;;14.16;100.00;98733.50;8332082;28;19994;-75
2022/10/14 18:32:17;;;;;;;;;;;;;;;14.15;100.00;98734.41;8339737;28;19933;-75
2022/10/14 18:36:23;;;;;;;;;;;;;;;14.15;100.00;98727.44;8341433;28;19936;-76
2022/10/14 18:40:27;;;;;;;;;;;;;;;14.14;100.00;98719.66;8339830;28;20036;-76
2022/10/14 18:44:29;;;;;;;;;;;;;;;14.16;100.00;98720.47;8345983;28;19929;-76
2022/10/14 18:48:30;;;;;;;;;;;;;;;14.17;100.00;98707.34;8338145;28;19933;-75
2022/10/14 18:52:32;;;;;;;;;;;;;;;14.18;100.00;98706.47;8320829;28;19991;-76
2022/10/14 18:56:37;;;;;;;;;;;;;;;14.20;100.00;98698.59;8340927;28;19932;-76
2022/10/14 19:00:39;;;;;;;;;;;;;;;14.21;100.00;98692.47;8341690;28;19929;-76
2022/10/14 19:04:40;;;;;;;;;;;;;;;14.23;100.00;98682.84;8325768;28;20521;-76
2022/10/14 19:08:41;;;;;;;;;;;;;;;14.26;100.00;98680.13;8341459;28;19955;-75
2022/10/14 19:12:43;;;;;;;;;;;;;;;14.28;100.00;98670.50;8325382;28;20550;-76
2022/10/14 19:16:46;;;;;;;;;;;;;;;14.30;100.00;98658.22;8318590;28;19986;-76
2022/10/14 19:20:55;;;;;;;;;;;;;;;14.32;100.00;98656.44;8320876;28;20338;-76
2022/10/14 19:24:56;;;;;;;;;;;;;;;14.35;100.00;98653.72;8328188;28;19986;-76
2022/10/14 19:28:58;;;;;;;;;;;;;;;14.37;100.00;98648.47;8335398;28;19929;-76
2022/10/14 19:33:00;;;;;;;;;;;;;;;14.38;100.00;98643.19;8329860;28;20596;-76
2022/10/14 19:37:01;;;;;;;;;;;;;;;14.41;100.00;98634.41;8341717;28;20439;-76
2022/10/14 19:41:04;;;;;;;;;;;;;;;14.42;100.00;98629.13;8321829;28;19987;-76
2022/10/14 19:45:05;;;;;;;;;;;;;;;14.46;100.00;98622.06;8324685;28;19963;-76
2022/10/14 19:49:06;;;;;;;;;;;;;;;14.49;100.00;98616.75;8309044;28;19936;-76
2022/10/14 19:53:08;;;;;;;;;;;;;;;14.53;100.00;98615.72;8344817;28;20356;-76
2022/10/14 19:57:09;;;;;;;;;;;;;;;14.51;100.00;98612.31;8330571;28;19997;-75
2022/10/14 20:01:13;;;;;;;;;;;;;;;14.51;100.00;98602.72;8339126;28;19929;-76
2022/10/14 20:05:18;;;;;;;;;;;;;;;14.54;100.00;98604.38;8311351;28;19929;-76
2022/10/14 20:09:19;;;;;;;;;;;;;;;14.55;100.00;98593.06;8317771;28;19929;-76
2022/10/14 20:13:21;;;;;;;;;;;;;;;14.57;100.00;98593.00;8309414;28;19934;-76
2022/10/14 20:17:36;;;;;;;;;;;;;;;14.60;100.00;98585.06;8258055;28;19934;-76
2022/10/14 20:21:38;;;;;;;;;;;;;;;14.61;100.00;98587.59;8286412;28;19929;-75
2022/10/14 20:25:40;;;;;;;;;;;;;;;14.63;100.00;98584.94;8294808;28;19933;-76
2022/10/14 20:29:41;;;;;;;;;;;;;;;14.63;100.00;98579.72;8301285;28;20556;-76
2022/10/14 20:33:43;;;;;;;;;;;;;;;14.64;100.00;98581.44;8294995;28;20420;-77
2022/10/14 20:37:44;;;;;;;;;;;;;;;14.64;100.00;98582.28;8307423;28;19929;-76
2022/10/14 20:41:45;;;;;;;;;;;;;;;14.64;100.00;98579.66;8301036;28;19929;-76
2022/10/14 20:45:47;;;;;;;;;;;;;;;14.66;100.00;98577.00;8300152;28;19936;-76
2022/10/14 20:49:48;;;;;;;;;;;;;;;14.70;100.00;98568.13;8293930;28;19932;-76
2022/10/14 20:53:52;;;;;;;;;;;;;;;14.71;100.00;98568.09;8310807;28;19928;-76
2022/10/14 20:58:00;;;;;;;;;;;;;;;14.74;100.00;98564.53;8310936;28;20067;-76
2022/10/14 21:02:02;;;;;;;;;;;;;;;14.77;100.00;98567.91;8302757;28;19968;-77
2022/10/14 21:06:04;;;;;;;;;;;;;;;14.79;100.00;98567.84;8292538;28;20417;-76